Terminal Aerodrome Forecast
Issued by NWS Wilmington, OH

Current Version | Previous Version | Text Only | Print | Product List | Glossary Off
Versions: 1 2 3 4 5 6 7 8 9 10 11 12 13 14 15 16 17

000
FTUS41 KILN 041100
TAFILN
TAF
KILN 041131Z 0412/0512 19005KT P6SM FEW150
     FM041500 22012G22KT P6SM SCT050 BKN150
     FM041900 22010G18KT P6SM VCSH BKN050
     FM042300 21009KT P6SM BKN060 BKN250=

USA.gov is the U.S. government's official web portal to all federal, state and local government web resources and services.